Time;durP1;ratioP1;P1;durP2;ratioP2;P2;SDS_P1;SDS_P2;PMS_P1;PMS_P2;Temp;Humidity;BMP_temperature;BMP_pressure;BME280_temperature;BME280_humidity;BME280_pressure;Samples;Min_cycle;Max_cycle;Signal;HPM_P1;HPM_P2
2023/10/25 00:00:31;;;;;;;35.58;26.52;;;10.40;99.90;;;;;;5067360;28;20239;-73
2023/10/25 00:02:58;;;;;;;30.88;23.35;;;10.30;99.90;;;;;;5070913;28;20200;-74
2023/10/25 00:05:24;;;;;;;39.25;27.15;;;10.40;99.90;;;;;;5069705;28;20238;-73
2023/10/25 00:07:51;;;;;;;29.42;23.40;;;10.30;99.90;;;;;;5061677;28;20231;-73
2023/10/25 00:10:18;;;;;;;30.50;24.00;;;10.30;99.90;;;;;;5064075;28;20197;-75
2023/10/25 00:12:45;;;;;;;30.95;25.10;;;10.30;99.90;;;;;;5069134;28;20204;-72
2023/10/25 00:15:12;;;;;;;31.88;23.90;;;10.30;99.90;;;;;;5070872;28;20584;-73
2023/10/25 00:17:40;;;;;;;37.47;26.67;;;10.30;99.90;;;;;;5066819;28;20219;-73
2023/10/25 00:20:08;;;;;;;38.08;25.30;;;10.40;99.90;;;;;;5067850;28;20232;-73
2023/10/25 00:22:35;;;;;;;32.20;25.10;;;10.20;99.90;;;;;;5066201;28;20382;-73
2023/10/25 00:25:02;;;;;;;43.65;28.45;;;10.30;99.90;;;;;;5071295;28;20279;-73
2023/10/25 00:27:29;;;;;;;30.08;25.02;;;10.20;99.90;;;;;;5072403;28;20219;-74
2023/10/25 00:29:56;;;;;;;34.50;27.05;;;10.20;99.90;;;;;;5071665;28;20291;-72
2023/10/25 00:32:23;;;;;;;37.28;28.08;;;10.20;99.90;;;;;;5060358;28;20288;-73
2023/10/25 00:34:51;;;;;;;35.15;24.77;;;10.20;99.90;;;;;;5070129;28;20204;-73
2023/10/25 00:37:19;;;;;;;33.83;23.60;;;10.20;99.90;;;;;;5067362;28;20303;-73
2023/10/25 00:39:46;;;;;;;42.70;28.98;;;10.20;99.90;;;;;;5069218;28;20287;-73
2023/10/25 00:42:13;;;;;;;39.38;27.75;;;10.20;99.90;;;;;;5070726;28;20617;-74
2023/10/25 00:44:40;;;;;;;35.72;25.85;;;10.20;99.90;;;;;;5073312;28;20573;-72
2023/10/25 00:47:08;;;;;;;30.67;24.00;;;10.20;99.90;;;;;;5070632;28;20582;-74
2023/10/25 00:49:35;;;;;;;44.00;29.33;;;10.10;99.90;;;;;;5067649;28;20225;-72
2023/10/25 00:52:04;;;;;;;40.95;29.42;;;10.20;99.90;;;;;;5071439;28;20217;-73
2023/10/25 00:54:31;;;;;;;39.35;28.48;;;10.10;99.90;;;;;;5069765;28;20638;-73
2023/10/25 00:56:59;;;;;;;43.38;30.05;;;10.10;99.90;;;;;;5071388;28;20218;-73
2023/10/25 00:59:27;;;;;;;32.70;24.75;;;10.00;99.90;;;;;;5064548;28;20198;-73
2023/10/25 01:01:54;;;;;;;36.28;25.83;;;10.10;99.90;;;;;;5067130;28;20205;-73
2023/10/25 01:04:21;;;;;;;42.95;29.08;;;9.90;99.90;;;;;;5061297;28;20622;-73
2023/10/25 01:06:48;;;;;;;31.05;23.58;;;9.90;99.90;;;;;;5068511;28;20306;-74
2023/10/25 01:09:16;;;;;;;36.72;25.77;;;9.90;99.90;;;;;;5061150;28;20204;-73
2023/10/25 01:11:44;;;;;;;45.28;27.85;;;9.90;99.90;;;;;;5064713;28;20226;-73
2023/10/25 01:14:11;;;;;;;37.55;27.65;;;9.90;99.90;;;;;;5064256;28;20201;-73
2023/10/25 01:16:38;;;;;;;44.53;27.27;;;9.90;99.90;;;;;;5064213;28;20219;-73
2023/10/25 01:19:05;;;;;;;40.75;26.85;;;9.80;99.90;;;;;;5066721;28;20279;-74
2023/10/25 01:21:32;;;;;;;31.73;23.30;;;9.80;99.90;;;;;;5070560;28;20199;-74
2023/10/25 01:24:00;;;;;;;44.25;29.02;;;9.90;99.90;;;;;;5068265;28;20209;-74
2023/10/25 01:26:27;;;;;;;43.55;27.92;;;9.90;99.90;;;;;;5061790;28;20198;-72
2023/10/25 01:28:54;;;;;;;47.28;28.52;;;9.90;99.90;;;;;;5065505;28;20235;-73
2023/10/25 01:31:21;;;;;;;30.75;23.35;;;9.80;99.90;;;;;;5063992;28;20291;-73
2023/10/25 01:33:51;;;;;;;38.92;27.52;;;9.80;99.90;;;;;;5064092;28;20294;-73
2023/10/25 01:36:18;;;;;;;32.38;23.63;;;9.80;99.90;;;;;;5064898;28;20220;-74
2023/10/25 01:38:44;;;;;;;26.17;21.17;;;9.90;99.90;;;;;;5060317;28;20240;-73
2023/10/25 01:41:16;;;;;;;41.35;25.90;;;9.90;99.90;;;;;;5068071;28;20296;-74
2023/10/25 01:43:43;;;;;;;37.97;25.27;;;9.90;99.90;;;;;;5063605;28;20265;-74
2023/10/25 01:46:10;;;;;;;45.78;29.45;;;9.80;99.90;;;;;;5071634;28;20206;-72
2023/10/25 01:48:37;;;;;;;48.13;28.63;;;9.80;99.90;;;;;;5065084;28;20319;-74
2023/10/25 01:51:05;;;;;;;38.08;25.60;;;9.70;99.90;;;;;;5061876;28;20211;-73
2023/10/25 01:53:33;;;;;;;33.85;24.50;;;9.60;99.90;;;;;;5068534;28;20234;-73
2023/10/25 01:56:00;;;;;;;41.30;27.85;;;9.60;99.90;;;;;;5067185;28;20311;-73
2023/10/25 01:58:29;;;;;;;48.35;30.60;;;9.50;99.90;;;;;;5063648;28;20302;-71
2023/10/25 02:00:56;;;;;;;38.70;25.50;;;9.40;99.90;;;;;;5061847;28;20575;-74
2023/10/25 02:03:22;;;;;;;54.30;30.52;;;9.50;99.90;;;;;;5064465;28;20573;-72
2023/10/25 02:05:49;;;;;;;48.85;30.10;;;9.40;99.90;;;;;;5063607;28;20200;-73
2023/10/25 02:08:16;;;;;;;57.50;30.38;;;9.40;99.90;;;;;;5063836;28;20286;-73
2023/10/25 02:10:43;;;;;;;45.13;30.58;;;9.30;99.90;;;;;;5065826;28;20350;-72
2023/10/25 02:13:10;;;;;;;51.67;30.85;;;9.30;99.90;;;;;;5063055;28;20214;-73
2023/10/25 02:15:38;;;;;;;38.50;26.27;;;9.30;99.90;;;;;;5061204;28;20205;-74
2023/10/25 02:18:05;;;;;;;34.88;25.92;;;9.30;99.90;;;;;;5055980;28;20672;-72
2023/10/25 02:20:32;;;;;;;39.13;26.75;;;9.40;99.90;;;;;;5063419;28;20283;-73
2023/10/25 02:22:59;;;;;;;51.95;29.83;;;9.30;99.90;;;;;;5066832;28;20222;-74
2023/10/25 02:25:26;;;;;;;40.08;25.30;;;9.30;99.90;;;;;;5065547;28;20195;-74
2023/10/25 02:27:53;;;;;;;40.97;27.95;;;9.30;99.90;;;;;;5063098;28;20302;-73
2023/10/25 02:30:19;;;;;;;51.08;30.13;;;9.30;99.90;;;;;;5058072;28;20289;-73
2023/10/25 02:32:48;;;;;;;31.95;24.27;;;9.20;99.90;;;;;;5078054;28;20258;-74
2023/10/25 02:35:15;;;;;;;49.78;31.27;;;9.30;99.90;;;;;;5074323;28;20279;-72
2023/10/25 02:37:42;;;;;;;47.28;28.92;;;9.30;99.90;;;;;;5078175;28;20225;-71
2023/10/25 02:40:10;;;;;;;42.42;28.70;;;9.20;99.90;;;;;;5072564;28;20235;-73
2023/10/25 02:42:38;;;;;;;50.85;30.85;;;9.20;99.90;;;;;;5067264;28;20250;-73
2023/10/25 02:45:06;;;;;;;40.13;27.80;;;9.20;99.90;;;;;;5068904;28;20207;-73
2023/10/25 02:47:33;;;;;;;37.17;25.92;;;9.20;99.90;;;;;;5069109;28;20599;-73
2023/10/25 02:50:02;;;;;;;41.35;26.90;;;9.20;99.90;;;;;;5063166;28;20278;-73
2023/10/25 02:52:29;;;;;;;34.28;23.90;;;9.20;99.90;;;;;;5058599;28;20205;-74
2023/10/25 02:54:56;;;;;;;36.85;24.20;;;9.30;99.90;;;;;;5067542;28;20195;-73
2023/10/25 02:57:23;;;;;;;29.23;23.42;;;9.30;99.90;;;;;;5072031;28;20319;-73
2023/10/25 02:59:51;;;;;;;38.85;27.23;;;9.30;99.90;;;;;;5069489;28;20570;-73
2023/10/25 03:02:18;;;;;;;34.33;23.45;;;9.40;99.90;;;;;;5065017;28;20211;-73
2023/10/25 03:04:45;;;;;;;34.83;23.63;;;9.40;99.90;;;;;;5075344;28;20286;-73
2023/10/25 03:07:13;;;;;;;38.88;25.30;;;9.40;99.90;;;;;;5065613;28;20219;-72
2023/10/25 03:09:40;;;;;;;32.85;23.17;;;9.40;99.90;;;;;;5073026;28;20217;-72
2023/10/25 03:12:07;;;;;;;31.58;21.50;;;9.30;99.90;;;;;;5065559;28;20291;-74
2023/10/25 03:14:34;;;;;;;36.25;23.45;;;9.30;99.90;;;;;;5073160;28;20744;-73
2023/10/25 03:17:01;;;;;;;39.45;25.88;;;9.40;99.90;;;;;;5069290;28;20227;-72
2023/10/25 03:19:29;;;;;;;35.03;23.50;;;9.40;99.90;;;;;;5067422;28;20199;-72
2023/10/25 03:21:56;;;;;;;29.33;21.33;;;9.40;99.90;;;;;;5069733;28;20567;-72
2023/10/25 03:24:25;;;;;;;37.58;26.25;;;9.30;99.90;;;;;;5071683;28;20202;-73
2023/10/25 03:26:52;;;;;;;32.67;24.95;;;9.30;99.90;;;;;;5072694;28;20305;-74
2023/10/25 03:29:19;;;;;;;35.70;24.80;;;9.30;99.90;;;;;;5067033;28;20733;-73
2023/10/25 03:31:46;;;;;;;34.05;24.90;;;9.40;99.90;;;;;;5064557;28;20721;-74
2023/10/25 03:34:13;;;;;;;33.85;22.40;;;9.40;99.90;;;;;;5071647;28;20243;-73
2023/10/25 03:36:40;;;;;;;38.50;28.00;;;9.40;99.90;;;;;;5068870;28;20578;-73
2023/10/25 03:39:07;;;;;;;28.17;20.85;;;9.30;99.90;;;;;;5060478;28;20287;-74
2023/10/25 03:41:36;;;;;;;33.80;24.35;;;9.30;99.90;;;;;;5069055;28;20291;-73
2023/10/25 03:44:03;;;;;;;33.13;22.35;;;9.40;99.90;;;;;;5063200;28;20206;-74
2023/10/25 03:46:30;;;;;;;39.13;26.15;;;9.40;99.90;;;;;;5069596;28;20202;-74
2023/10/25 03:48:57;;;;;;;39.05;25.75;;;9.40;99.90;;;;;;5065012;28;20210;-75
2023/10/25 03:51:24;;;;;;;35.17;25.13;;;9.30;99.90;;;;;;5061966;28;20206;-72
2023/10/25 03:53:51;;;;;;;39.15;27.00;;;9.30;99.90;;;;;;5068720;28;20291;-72
2023/10/25 03:56:18;;;;;;;31.30;22.83;;;9.40;99.90;;;;;;5061849;28;20303;-73
2023/10/25 03:58:46;;;;;;;30.90;23.35;;;9.40;99.90;;;;;;5069143;28;20209;-74
2023/10/25 04:01:13;;;;;;;35.58;23.05;;;9.40;99.90;;;;;;5070987;28;20232;-74
2023/10/25 04:03:41;;;;;;;27.77;20.95;;;9.40;99.90;;;;;;5068756;28;20282;-74
2023/10/25 04:06:09;;;;;;;37.70;25.38;;;9.40;99.90;;;;;;5062071;28;20204;-73
2023/10/25 04:08:36;;;;;;;30.27;21.88;;;9.40;99.90;;;;;;5069664;28;20333;-73
2023/10/25 04:11:03;;;;;;;26.85;20.75;;;9.40;99.90;;;;;;5066365;28;20286;-74
2023/10/25 04:13:30;;;;;;;35.78;22.98;;;9.40;99.90;;;;;;5063304;28;20203;-73
2023/10/25 04:16:00;;;;;;;33.17;25.20;;;9.40;99.90;;;;;;5067518;28;20242;-74
2023/10/25 04:18:28;;;;;;;24.98;20.77;;;9.40;99.90;;;;;;5062790;28;20233;-73
2023/10/25 04:20:55;;;;;;;32.80;23.27;;;9.40;99.90;;;;;;5065616;28;20638;-73
2023/10/25 04:23:23;;;;;;;34.08;23.77;;;9.30;99.90;;;;;;5062658;28;20207;-73
2023/10/25 04:25:50;;;;;;;34.00;24.67;;;9.40;99.90;;;;;;5067187;28;20221;-72
2023/10/25 04:28:18;;;;;;;29.67;22.55;;;9.40;99.90;;;;;;5069065;28;20219;-73
2023/10/25 04:30:45;;;;;;;29.88;23.13;;;9.40;99.90;;;;;;5073432;28;20199;-73
2023/10/25 04:33:13;;;;;;;28.92;22.15;;;9.40;99.90;;;;;;5064114;28;20295;-75
2023/10/25 04:35:41;;;;;;;35.22;26.52;;;9.40;99.90;;;;;;5065454;28;20200;-74
2023/10/25 04:38:08;;;;;;;35.75;25.20;;;9.40;99.90;;;;;;5069603;28;20226;-73
2023/10/25 04:40:35;;;;;;;33.03;22.98;;;9.30;99.90;;;;;;5072868;28;20205;-74
2023/10/25 04:43:01;;;;;;;30.25;23.00;;;9.30;99.90;;;;;;5069997;28;20203;-70
2023/10/25 04:45:29;;;;;;;29.95;23.17;;;9.30;99.90;;;;;;5065697;28;20326;-69
2023/10/25 04:47:56;;;;;;;40.67;26.45;;;9.40;99.90;;;;;;5066965;28;20665;-72
2023/10/25 04:50:25;;;;;;;33.53;24.25;;;9.30;99.90;;;;;;5067213;28;20206;-72
2023/10/25 04:52:52;;;;;;;29.17;21.58;;;9.30;99.90;;;;;;5063556;28;20228;-72
2023/10/25 04:55:21;;;;;;;28.45;22.38;;;9.30;99.90;;;;;;5061767;28;20211;-72
2023/10/25 04:57:48;;;;;;;34.60;26.52;;;9.30;99.90;;;;;;5061728;28;20270;-71
2023/10/25 05:00:15;;;;;;;33.22;24.38;;;9.20;99.90;;;;;;5068811;28;20284;-71
2023/10/25 05:02:42;;;;;;;36.55;26.02;;;9.20;99.90;;;;;;5062511;28;20200;-70
2023/10/25 05:05:09;;;;;;;40.83;25.58;;;9.10;99.90;;;;;;5066967;28;20254;-71
2023/10/25 05:07:38;;;;;;;41.85;27.10;;;9.10;99.90;;;;;;5066864;28;20302;-72
2023/10/25 05:10:07;;;;;;;40.65;25.95;;;9.20;99.90;;;;;;5063413;28;20290;-71
2023/10/25 05:12:38;;;;;;;37.92;26.13;;;9.20;99.90;;;;;;5062684;28;20198;-72
2023/10/25 05:15:06;;;;;;;28.65;22.33;;;9.20;99.90;;;;;;5062528;28;20203;-71
2023/10/25 05:17:34;;;;;;;42.75;26.20;;;9.20;99.90;;;;;;5066986;28;20310;-70
2023/10/25 05:20:02;;;;;;;31.13;22.83;;;9.20;99.90;;;;;;5066253;28;20278;-70
2023/10/25 05:22:34;;;;;;;34.08;24.15;;;9.20;99.90;;;;;;5060493;28;20324;-73
2023/10/25 05:25:03;;;;;;;39.13;29.27;;;9.20;99.90;;;;;;5060893;28;20261;-72
2023/10/25 05:27:32;;;;;;;36.38;23.70;;;9.10;99.90;;;;;;5066835;28;20305;-73
2023/10/25 05:30:03;;;;;;;38.92;23.52;;;9.10;99.90;;;;;;5059984;28;20595;-72
2023/10/25 05:32:32;;;;;;;35.63;25.08;;;9.10;99.90;;;;;;5061048;28;20203;-71
2023/10/25 05:35:00;;;;;;;37.38;24.20;;;9.10;99.90;;;;;;5066389;28;20231;-72
2023/10/25 05:37:30;;;;;;;24.90;20.35;;;9.10;99.90;;;;;;5060036;28;20226;-72
2023/10/25 05:39:57;;;;;;;43.72;26.83;;;9.00;99.90;;;;;;5062039;28;20190;-71
2023/10/25 05:42:27;;;;;;;42.83;25.73;;;9.00;99.90;;;;;;5067002;28;20634;-71
2023/10/25 05:44:55;;;;;;;39.33;27.60;;;8.90;99.90;;;;;;5063241;28;20227;-73
2023/10/25 05:47:23;;;;;;;28.20;20.83;;;8.90;99.90;;;;;;5071787;28;20237;-72
2023/10/25 05:49:50;;;;;;;32.42;24.27;;;8.90;99.90;;;;;;5054613;28;20205;-72
2023/10/25 05:52:17;;;;;;;37.03;24.40;;;9.00;99.90;;;;;;5065808;28;20253;-72
2023/10/25 05:54:45;;;;;;;36.00;25.33;;;9.00;99.90;;;;;;5055566;28;20203;-72
2023/10/25 05:57:14;;;;;;;31.88;22.70;;;9.00;99.90;;;;;;5060054;28;20638;-72
2023/10/25 05:59:43;;;;;;;32.17;22.45;;;9.00;99.90;;;;;;5063131;28;20278;-72
2023/10/25 06:02:14;;;;;;;33.50;21.08;;;9.00;99.90;;;;;;5061236;28;20304;-73
2023/10/25 06:04:42;;;;;;;35.75;24.73;;;9.00;99.90;;;;;;5072927;28;20269;-72
2023/10/25 06:07:10;;;;;;;31.45;22.52;;;8.90;99.90;;;;;;5069962;28;20266;-71
2023/10/25 06:09:38;;;;;;;39.30;26.23;;;8.90;99.90;;;;;;5072183;28;20242;-73
2023/10/25 06:12:07;;;;;;;35.75;24.42;;;8.90;99.90;;;;;;5072605;28;20207;-73
2023/10/25 06:14:34;;;;;;;35.72;24.80;;;8.90;99.90;;;;;;5072607;28;20226;-73
2023/10/25 06:17:02;;;;;;;37.30;24.90;;;8.80;99.90;;;;;;5063963;28;20227;-72
2023/10/25 06:19:29;;;;;;;40.03;23.48;;;8.80;99.90;;;;;;5071551;28;20209;-73
2023/10/25 06:21:56;;;;;;;40.53;27.70;;;8.80;99.90;;;;;;5072435;28;20672;-73
2023/10/25 06:24:24;;;;;;;32.47;23.33;;;8.80;99.90;;;;;;5072384;28;20200;-72
2023/10/25 06:26:50;;;;;;;36.97;23.83;;;8.80;99.90;;;;;;5072267;28;20309;-73
2023/10/25 06:29:18;;;;;;;29.80;20.38;;;8.80;99.90;;;;;;5067694;28;20817;-71
2023/10/25 06:31:50;;;;;;;30.45;22.02;;;8.90;99.90;;;;;;5061513;28;20282;-73
2023/10/25 06:34:19;;;;;;;31.55;22.67;;;8.90;99.90;;;;;;5061981;28;20220;-69
2023/10/25 06:36:47;;;;;;;28.27;19.08;;;8.90;99.90;;;;;;5066133;28;20219;-72
2023/10/25 06:39:15;;;;;;;32.20;23.52;;;8.90;99.90;;;;;;5065086;28;20298;-73
2023/10/25 06:41:43;;;;;;;38.35;23.42;;;8.90;99.90;;;;;;5070504;28;20567;-71
2023/10/25 06:44:10;;;;;;;33.38;24.23;;;8.90;99.90;;;;;;5068511;28;20278;-72
2023/10/25 06:46:38;;;;;;;37.63;24.20;;;8.90;99.90;;;;;;5063943;28;20223;-74
2023/10/25 06:49:05;;;;;;;24.98;21.05;;;8.90;99.90;;;;;;5069078;28;20583;-71
2023/10/25 06:51:35;;;;;;;35.17;24.35;;;9.00;99.90;;;;;;5069275;28;20623;-71
2023/10/25 06:54:02;;;;;;;28.48;22.08;;;9.30;99.90;;;;;;5072741;28;20200;-73
2023/10/25 06:56:30;;;;;;;38.60;20.20;;;9.80;99.90;;;;;;5071896;28;20282;-73
2023/10/25 06:58:58;;;;;;;23.40;18.70;;;10.50;99.90;;;;;;5066054;28;20294;-72
2023/10/25 07:01:29;;;;;;;18.58;16.40;;;10.90;99.90;;;;;;5060418;28;20206;-73
2023/10/25 07:03:58;;;;;;;15.55;13.95;;;11.30;99.90;;;;;;5058250;28;20238;-73
2023/10/25 07:06:25;;;;;;;19.45;16.10;;;11.80;99.90;;;;;;5064985;28;20235;-73
2023/10/25 07:08:54;;;;;;;17.30;13.50;;;12.30;99.90;;;;;;5065820;28;20723;-74
2023/10/25 07:11:21;;;;;;;14.55;12.48;;;13.00;99.90;;;;;;5056963;28;20278;-72
2023/10/25 07:13:48;;;;;;;11.90;10.70;;;13.50;99.90;;;;;;5060570;28;20282;-73
2023/10/25 07:16:15;;;;;;;14.15;12.65;;;14.20;99.90;;;;;;5061309;28;20205;-73
2023/10/25 07:18:43;;;;;;;14.93;11.15;;;14.60;99.90;;;;;;5067108;28;20256;-72
2023/10/25 07:21:10;;;;;;;15.17;12.57;;;15.00;99.90;;;;;;5068406;28;20221;-73
2023/10/25 07:23:37;;;;;;;14.40;10.93;;;15.00;99.90;;;;;;5062994;28;20469;-72
2023/10/25 07:26:06;;;;;;;9.57;8.67;;;15.70;99.90;;;;;;5065160;28;20433;-72
2023/10/25 07:28:33;;;;;;;9.30;8.30;;;16.30;99.90;;;;;;5057286;28;20459;-73
2023/10/25 07:31:00;;;;;;;10.93;9.77;;;17.10;99.90;;;;;;5061656;28;20525;-73
2023/10/25 07:33:28;;;;;;;14.20;10.00;;;17.50;99.90;;;;;;5062949;28;20927;-73
2023/10/25 07:35:55;;;;;;;12.20;8.57;;;17.80;99.90;;;;;;5059922;28;20953;-72
2023/10/25 07:38:22;;;;;;;10.60;8.53;;;17.90;99.90;;;;;;5062000;28;20569;-76
2023/10/25 07:40:49;;;;;;;10.93;8.97;;;18.40;99.90;;;;;;5057533;28;20474;-73
2023/10/25 07:43:20;;;;;;;16.53;9.00;;;18.70;98.70;;;;;;5071373;28;20461;-73
2023/10/25 07:45:47;;;;;;;9.80;8.90;;;18.70;97.90;;;;;;5066344;28;20445;-73
2023/10/25 07:48:14;;;;;;;10.07;8.53;;;18.90;97.90;;;;;;5062879;28;20564;-72
2023/10/25 07:50:41;;;;;;;13.60;7.90;;;19.20;97.20;;;;;;5068762;28;20481;-70
2023/10/25 07:53:08;;;;;;;11.47;8.70;;;19.20;96.60;;;;;;5064005;28;20485;-73
2023/10/25 07:55:39;;;;;;;9.23;7.90;;;19.30;96.30;;;;;;5070522;28;20985;-72
2023/10/25 07:58:07;;;;;;;7.60;6.70;;;19.60;95.90;;;;;;5063872;28;20568;-72
2023/10/25 08:00:35;;;;;;;8.30;6.87;;;20.00;95.20;;;;;;5073227;28;20452;-72
2023/10/25 08:03:02;;;;;;;9.67;6.43;;;20.20;94.30;;;;;;5062770;28;21000;-70
2023/10/25 08:05:29;;;;;;;9.73;6.53;;;20.70;94.10;;;;;;5077274;28;20468;-68
2023/10/25 08:07:56;;;;;;;7.63;6.20;;;20.50;93.10;;;;;;5075685;28;20569;-70
2023/10/25 08:10:24;;;;;;;8.37;6.73;;;20.70;93.30;;;;;;5060021;28;20878;-69
2023/10/25 08:12:51;;;;;;;7.03;6.33;;;21.00;93.40;;;;;;5068575;28;20438;-73
2023/10/25 08:15:18;;;;;;;8.90;6.60;;;21.20;92.70;;;;;;5069191;28;20437;-70
2023/10/25 08:17:46;;;;;;;11.97;6.43;;;21.00;93.00;;;;;;5070856;28;20955;-70
2023/10/25 08:20:14;;;;;;;7.60;6.43;;;21.30;92.60;;;;;;5064230;28;20438;-72
2023/10/25 08:22:41;;;;;;;13.50;7.47;;;21.00;92.00;;;;;;5071370;28;20913;-71
2023/10/25 08:25:08;;;;;;;8.80;7.53;;;21.00;92.50;;;;;;5066788;28;20435;-71
2023/10/25 08:27:36;;;;;;;8.43;6.90;;;21.20;92.30;;;;;;5057928;28;20521;-73
2023/10/25 08:30:04;;;;;;;6.30;5.70;;;21.10;91.90;;;;;;5068632;28;20498;-71
2023/10/25 08:32:30;;;;;;;11.43;6.50;;;21.10;93.00;;;;;;5068552;28;20939;-71
2023/10/25 08:34:59;;;;;;;7.97;4.87;;;20.90;91.90;;;;;;5066692;28;20855;-72
2023/10/25 08:37:27;;;;;;;9.33;8.43;;;20.80;92.80;;;;;;5068794;28;20548;-73
2023/10/25 08:39:54;;;;;;;7.13;5.00;;;21.30;92.10;;;;;;5062205;28;20501;-73
2023/10/25 08:42:21;;;;;;;9.50;5.50;;;21.10;91.90;;;;;;5068710;28;20475;-72
2023/10/25 08:44:48;;;;;;;7.77;5.40;;;21.40;92.00;;;;;;5063753;28;20537;-73
2023/10/25 08:47:17;;;;;;;14.13;6.80;;;21.00;91.60;;;;;;5062152;28;20541;-74
2023/10/25 08:49:44;;;;;;;8.13;6.40;;;20.30;92.90;;;;;;5061520;28;20542;-72
2023/10/25 08:52:14;;;;;;;6.97;5.80;;;20.00;93.00;;;;;;5065988;28;20964;-72
2023/10/25 08:54:41;;;;;;;8.03;6.10;;;19.60;94.40;;;;;;5064053;28;20472;-72
2023/10/25 08:57:08;;;;;;;10.30;5.30;;;19.10;94.60;;;;;;5063460;28;20454;-72
2023/10/25 08:59:42;;;;;;;11.00;5.73;;;18.50;95.30;;;;;;5062774;28;20804;-72
2023/10/25 09:02:11;;;;;;;8.77;5.30;;;17.90;96.30;;;;;;5065014;28;20876;-73
2023/10/25 09:04:38;;;;;;;6.47;5.20;;;17.30;97.50;;;;;;5062946;28;20480;-74
2023/10/25 09:07:29;;;;;;;8.23;5.83;;;16.80;99.50;;;;;;5070625;28;20547;-72
2023/10/25 09:09:56;;;;;;;8.80;6.27;;;16.90;99.90;;;;;;5066970;28;20912;-72
2023/10/25 09:12:24;;;;;;;9.10;6.77;;;16.80;99.90;;;;;;5070346;28;20494;-72
2023/10/25 09:14:51;;;;;;;10.63;6.07;;;16.50;99.90;;;;;;5065034;28;20831;-73
2023/10/25 09:17:18;;;;;;;17.40;6.83;;;16.50;99.90;;;;;;5062029;28;20542;-72
2023/10/25 09:19:45;;;;;;;8.53;5.53;;;16.70;99.90;;;;;;5064768;28;20529;-72
2023/10/25 09:22:25;;;;;;;5.97;5.33;;;17.00;99.90;;;;;;5063070;28;20870;-72
2023/10/25 09:24:55;;;;;;;7.80;5.33;;;17.40;99.90;;;;;;5056867;28;20520;-72
2023/10/25 09:27:23;;;;;;;7.63;5.57;;;17.60;99.80;;;;;;5067621;28;20468;-72
2023/10/25 09:29:50;;;;;;;7.37;4.80;;;17.60;99.30;;;;;;5059517;28;20508;-73
2023/10/25 09:32:18;;;;;;;12.53;5.50;;;17.70;99.10;;;;;;5063015;28;20870;-72
2023/10/25 09:34:46;;;;;;;9.37;5.50;;;17.80;98.90;;;;;;5062558;28;20924;-73
2023/10/25 09:37:13;;;;;;;6.17;4.37;;;17.80;99.10;;;;;;5056113;28;20469;-72
2023/10/25 09:39:40;;;;;;;8.10;4.63;;;17.90;98.80;;;;;;5065720;28;20437;-71
2023/10/25 09:42:11;;;;;;;9.70;5.50;;;18.00;99.00;;;;;;5056374;28;20517;-72
2023/10/25 09:44:45;;;;;;;10.83;4.67;;;18.00;98.50;;;;;;5057572;28;20478;-72
2023/10/25 09:47:15;;;;;;;12.43;4.13;;;18.20;98.50;;;;;;5063197;28;20838;-72
2023/10/25 09:49:44;;;;;;;8.97;4.40;;;18.20;98.10;;;;;;5057021;28;20482;-72
2023/10/25 09:52:18;;;;;;;7.43;5.73;;;17.90;98.10;;;;;;5059307;28;20513;-72
2023/10/25 09:54:58;;;;;;;6.30;5.03;;;17.50;98.70;;;;;;5065665;28;20441;-72
2023/10/25 09:57:29;;;;;;;6.23;4.77;;;16.70;99.90;;;;;;5063739;28;20457;-72
2023/10/25 09:59:56;;;;;;;4.87;4.30;;;16.30;99.90;;;;;;5068196;28;20474;-72
2023/10/25 10:02:43;;;;;;;7.73;4.50;;;16.00;99.90;;;;;;5072320;28;20927;-71
2023/10/25 10:05:14;;;;;;;8.67;5.63;;;16.30;99.90;;;;;;5067323;28;20531;-72
2023/10/25 10:07:47;;;;;;;8.53;5.33;;;16.40;99.90;;;;;;5064451;28;20558;-73
2023/10/25 10:10:22;;;;;;;8.27;4.30;;;16.40;99.90;;;;;;5061369;28;20438;-72
2023/10/25 10:12:50;;;;;;;8.43;4.53;;;16.40;99.90;;;;;;5068806;28;20452;-71
2023/10/25 10:15:19;;;;;;;8.00;4.60;;;16.70;99.90;;;;;;5069466;28;20532;-72
2023/10/25 10:17:46;;;;;;;6.30;4.37;;;16.90;99.90;;;;;;5060843;28;20572;-72
2023/10/25 10:20:25;;;;;;;9.10;4.70;;;16.90;99.90;;;;;;5065888;28;20441;-72
2023/10/25 10:23:05;;;;;;;8.00;4.73;;;16.90;99.90;;;;;;5069894;28;20438;-73
2023/10/25 10:25:46;;;;;;;8.90;4.50;;;16.50;99.90;;;;;;5069012;28;20455;-71
2023/10/25 10:28:14;;;;;;;7.50;4.60;;;16.40;99.90;;;;;;5060829;28;20495;-72
2023/10/25 10:30:42;;;;;;;8.20;4.43;;;16.40;99.90;;;;;;5067581;28;20950;-72
2023/10/25 10:33:11;;;;;;;7.10;5.20;;;16.30;99.90;;;;;;5069295;28;20453;-72
2023/10/25 10:35:44;;;;;;;5.07;4.33;;;16.20;99.90;;;;;;5067487;28;20432;-71
2023/10/25 10:38:11;;;;;;;4.40;3.60;;;16.30;99.90;;;;;;5066040;28;20495;-71
2023/10/25 10:40:38;;;;;;;7.83;4.10;;;16.50;99.90;;;;;;5072511;28;20434;-70
2023/10/25 10:43:07;;;;;;;7.07;4.60;;;16.70;99.90;;;;;;5072710;28;20429;-70
2023/10/25 10:45:36;;;;;;;5.73;3.67;;;17.00;99.90;;;;;;5071868;28;20445;-70
2023/10/25 10:48:18;;;;;;;6.30;3.30;;;17.10;99.90;;;;;;5064418;28;20548;-71
2023/10/25 10:50:46;;;;;;;5.67;3.97;;;17.00;99.90;;;;;;5063257;28;20528;-70
2023/10/25 10:53:13;;;;;;;7.63;4.43;;;17.10;99.90;;;;;;5067469;28;20797;-69
2023/10/25 10:55:41;;;;;;;5.73;3.90;;;17.30;99.90;;;;;;5069373;28;20528;-72
2023/10/25 10:58:09;;;;;;;5.33;4.43;;;16.90;99.90;;;;;;5070769;28;20476;-70
2023/10/25 11:00:37;;;;;;;5.80;4.10;;;16.90;99.90;;;;;;5071353;28;20448;-69
2023/10/25 11:03:04;;;;;;;10.30;4.50;;;16.80;99.90;;;;;;5061284;28;20488;-70
2023/10/25 11:05:31;;;;;;;6.57;5.00;;;16.70;99.90;;;;;;5069231;28;21830;-71
2023/10/25 11:07:59;;;;;;;5.63;4.40;;;16.70;99.90;;;;;;5062238;28;20545;-71
2023/10/25 11:10:26;;;;;;;8.30;4.70;;;16.70;99.90;;;;;;5068578;28;20554;-73
2023/10/25 11:12:58;;;;;;;6.93;5.20;;;16.60;99.90;;;;;;5063374;28;20945;-69
2023/10/25 11:15:25;;;;;;;7.00;5.57;;;16.40;99.90;;;;;;5068589;28;20456;-69
2023/10/25 11:17:54;;;;;;;6.60;5.87;;;16.10;99.90;;;;;;5070147;28;20530;-69
2023/10/25 11:20:21;;;;;;;8.43;5.40;;;15.90;99.90;;;;;;5066852;28;21004;-71
2023/10/25 11:22:48;;;;;;;6.37;5.77;;;15.60;99.90;;;;;;5065308;28;20483;-68
2023/10/25 11:25:21;;;;;;;9.25;5.88;;;15.40;99.90;;;;;;5065156;28;20449;-72
2023/10/25 11:27:48;;;;;;;14.15;6.65;;;15.40;99.90;;;;;;5070551;28;20568;-72
2023/10/25 11:30:16;;;;;;;7.50;5.53;;;15.40;99.90;;;;;;5068322;28;20287;-71
2023/10/25 11:32:43;;;;;;;6.40;5.72;;;15.40;99.90;;;;;;5063242;28;20452;-72
2023/10/25 11:35:23;;;;;;;7.50;6.27;;;15.40;99.90;;;;;;5061167;28;20217;-72
2023/10/25 11:37:52;;;;;;;7.33;6.17;;;15.50;99.90;;;;;;5059131;28;20571;-69
2023/10/25 11:40:20;;;;;;;6.68;4.15;;;15.40;99.90;;;;;;5061800;28;20494;-70
2023/10/25 11:42:48;;;;;;;5.50;3.60;;;15.60;99.90;;;;;;5062589;28;20656;-71
2023/10/25 11:45:17;;;;;;;7.13;4.50;;;15.70;99.90;;;;;;5064055;28;20220;-72
2023/10/25 11:47:48;;;;;;;7.77;4.50;;;15.80;99.90;;;;;;5069262;28;20255;-72
2023/10/25 11:50:15;;;;;;;8.00;4.37;;;15.70;99.90;;;;;;5065335;28;20925;-72
2023/10/25 11:52:43;;;;;;;7.97;3.80;;;15.80;99.90;;;;;;5064173;28;20449;-70
2023/10/25 11:55:10;;;;;;;6.70;5.40;;;15.80;99.90;;;;;;5070542;28;20289;-72
2023/10/25 11:57:37;;;;;;;8.87;5.20;;;15.80;99.90;;;;;;5066330;28;20541;-71
2023/10/25 12:00:08;;;;;;;5.67;5.17;;;15.90;99.90;;;;;;5067642;28;20490;-72
2023/10/25 12:02:36;;;;;;;9.43;5.43;;;15.90;99.90;;;;;;5064958;28;20452;-72
2023/10/25 12:05:03;;;;;;;7.50;5.00;;;15.70;99.90;;;;;;5065037;28;20440;-72
2023/10/25 12:07:31;;;;;;;6.75;4.85;;;15.70;99.90;;;;;;5066014;28;20282;-70
2023/10/25 12:10:00;;;;;;;7.30;4.53;;;15.50;99.90;;;;;;5060177;28;20230;-70
2023/10/25 12:12:27;;;;;;;8.57;4.40;;;15.40;99.90;;;;;;5064826;28;20297;-70
2023/10/25 12:14:54;;;;;;;7.57;4.88;;;15.40;99.90;;;;;;5062195;28;20283;-72
2023/10/25 12:17:21;;;;;;;8.85;4.93;;;15.30;99.90;;;;;;5067722;28;20231;-71
2023/10/25 12:19:50;;;;;;;5.05;4.55;;;15.20;99.90;;;;;;5062519;28;20288;-71
2023/10/25 12:22:18;;;;;;;7.97;5.50;;;15.20;99.90;;;;;;5059425;28;20203;-71
2023/10/25 12:24:46;;;;;;;6.00;5.40;;;15.00;99.90;;;;;;5064632;28;20205;-70
2023/10/25 12:27:15;;;;;;;7.57;4.82;;;15.00;99.90;;;;;;5057639;28;20702;-71
2023/10/25 12:29:42;;;;;;;9.55;5.10;;;15.10;99.90;;;;;;5068691;28;20244;-71
2023/10/25 12:32:09;;;;;;;7.05;5.72;;;15.10;99.90;;;;;;5062990;28;20219;-71
2023/10/25 12:34:36;;;;;;;11.05;6.63;;;15.20;99.90;;;;;;5066799;28;20295;-72
2023/10/25 12:37:03;;;;;;;7.18;6.20;;;15.10;99.90;;;;;;5064387;28;20220;-72
2023/10/25 12:39:31;;;;;;;8.80;5.75;;;15.10;99.90;;;;;;5066485;28;20295;-73
2023/10/25 12:41:58;;;;;;;8.00;6.50;;;15.10;99.90;;;;;;5071742;28;20200;-72